CheckWX is a tool to help pilots better visualize weather data.  It is not intended as a substitute for an official pre-flight weather briefing.

05:23:29 UTC

CYVL METAR
Colville Lake / Tommy Kochon Airport
Colville Lake, Canada
Current

23 mins ago

CYVL 200500Z AUTO 22006KT 3SM -SN BKN020 OVC025 M13/M15 A2987 RMK SLP151
Observed
Feb-20 @ 05:00 UTC
Wind
  • 220° at 6 KTS
Visibility
4,828 meters
Flight Rules
MVFR
Conditions
Light Snow
Cloud Levels
  • Broken at 2,000' AGL
  • Overcast at 2,500' AGL
Temperature
-13°C / 9°F
Dewpoint
-15°C / 5°F
Humidity
85%
Altimeter
29.87" Hg
Pressure
1015.1 hPa
Previous

41 mins ago

CYVL 200442Z AUTO 22008KT 5SM -SN BKN020 OVC030 M13/M15 A2987 RMK SLP148
Observed
Feb-20 @ 04:42 UTC
Wind
  • 220° at 8 KTS
Visibility
8,047 meters
Flight Rules
MVFR
Conditions
Light Snow
Cloud Levels
  • Broken at 2,000' AGL
  • Overcast at 3,000' AGL
Temperature
-13°C / 9°F
Dewpoint
-15°C / 5°F
Humidity
85%
Altimeter
29.87" Hg
Pressure
1014.8 hPa
Previous

55 mins ago

CYVL 200428Z AUTO 21009KT 9SM -SN BKN018 BKN027 OVC032 M14/M15 A2986 RMK SLP146
Observed
Feb-20 @ 04:28 UTC
Wind
  • 210° at 9 KTS
Visibility
14,484 meters
Flight Rules
MVFR
Conditions
Light Snow
Cloud Levels
  • Broken at 1,800' AGL
  • Broken at 2,700' AGL
  • Overcast at 3,200' AGL
Temperature
-14°C / 7°F
Dewpoint
-15°C / 5°F
Humidity
92%
Altimeter
29.86" Hg
Pressure
1014.6 hPa